sensor_id;sensor_type;location;lat;lon;timestamp;P1;durP1;ratioP1;P2;durP2;ratioP2
14892;SDS011;7538;53.626;9.906;2024-01-15T00:00:58;10.20;;;2.47;;
14892;SDS011;7538;53.626;9.906;2024-01-15T00:03:28;7.87;;;1.80;;
14892;SDS011;7538;53.626;9.906;2024-01-15T00:05:55;7.87;;;1.80;;
14892;SDS011;7538;53.626;9.906;2024-01-15T00:08:22;8.30;;;1.53;;
14892;SDS011;7538;53.626;9.906;2024-01-15T00:10:48;10.63;;;2.00;;
14892;SDS011;7538;53.626;9.906;2024-01-15T00:47:47;7.57;;;2.50;;
14892;SDS011;7538;53.626;9.906;2024-01-15T00:50:13;8.23;;;1.90;;
14892;SDS011;7538;53.626;9.906;2024-01-15T00:52:40;8.60;;;2.00;;
14892;SDS011;7538;53.626;9.906;2024-01-15T00:55:07;10.33;;;2.30;;
14892;SDS011;7538;53.626;9.906;2024-01-15T00:57:34;11.83;;;3.20;;
14892;SDS011;7538;53.626;9.906;2024-01-15T01:00:01;12.97;;;2.43;;
14892;SDS011;7538;53.626;9.906;2024-01-15T01:02:28;14.17;;;2.33;;
14892;SDS011;7538;53.626;9.906;2024-01-15T01:04:56;7.80;;;2.63;;
14892;SDS011;7538;53.626;9.906;2024-01-15T01:07:23;8.30;;;2.33;;
14892;SDS011;7538;53.626;9.906;2024-01-15T01:09:50;10.17;;;2.37;;
14892;SDS011;7538;53.626;9.906;2024-01-15T01:12:17;9.67;;;2.60;;
14892;SDS011;7538;53.626;9.906;2024-01-15T01:14:43;8.47;;;2.07;;
14892;SDS011;7538;53.626;9.906;2024-01-15T01:17:10;10.07;;;2.30;;
14892;SDS011;7538;53.626;9.906;2024-01-15T01:19:37;9.37;;;2.20;;
14892;SDS011;7538;53.626;9.906;2024-01-15T01:22:05;13.67;;;2.73;;
14892;SDS011;7538;53.626;9.906;2024-01-15T01:24:32;8.93;;;2.10;;
14892;SDS011;7538;53.626;9.906;2024-01-15T01:26:59;8.93;;;2.43;;
14892;SDS011;7538;53.626;9.906;2024-01-15T01:29:26;9.07;;;2.20;;
14892;SDS011;7538;53.626;9.906;2024-01-15T01:31:53;10.47;;;2.47;;
14892;SDS011;7538;53.626;9.906;2024-01-15T01:34:21;12.07;;;2.43;;
14892;SDS011;7538;53.626;9.906;2024-01-15T01:36:48;4.20;;;1.40;;
14892;SDS011;7538;53.626;9.906;2024-01-15T01:39:16;7.23;;;1.80;;
14892;SDS011;7538;53.626;9.906;2024-01-15T01:41:43;7.40;;;1.90;;
14892;SDS011;7538;53.626;9.906;2024-01-15T01:44:10;8.67;;;2.20;;
14892;SDS011;7538;53.626;9.906;2024-01-15T01:46:37;13.50;;;2.60;;
14892;SDS011;7538;53.626;9.906;2024-01-15T01:49:05;6.60;;;2.10;;
14892;SDS011;7538;53.626;9.906;2024-01-15T01:51:33;10.07;;;1.90;;
14892;SDS011;7538;53.626;9.906;2024-01-15T01:54:02;8.33;;;1.80;;
14892;SDS011;7538;53.626;9.906;2024-01-15T01:56:31;12.40;;;2.90;;
14892;SDS011;7538;53.626;9.906;2024-01-15T01:58:59;15.37;;;2.33;;
14892;SDS011;7538;53.626;9.906;2024-01-15T02:01:27;13.00;;;2.20;;
14892;SDS011;7538;53.626;9.906;2024-01-15T02:03:55;8.57;;;1.97;;
14892;SDS011;7538;53.626;9.906;2024-01-15T02:06:22;10.10;;;2.20;;
14892;SDS011;7538;53.626;9.906;2024-01-15T02:08:49;10.80;;;2.87;;
14892;SDS011;7538;53.626;9.906;2024-01-15T02:11:16;8.43;;;1.90;;
14892;SDS011;7538;53.626;9.906;2024-01-15T02:13:45;6.93;;;2.30;;
14892;SDS011;7538;53.626;9.906;2024-01-15T02:16:12;6.93;;;1.73;;
14892;SDS011;7538;53.626;9.906;2024-01-15T02:18:39;6.50;;;2.30;;
14892;SDS011;7538;53.626;9.906;2024-01-15T02:21:07;9.37;;;2.00;;
14892;SDS011;7538;53.626;9.906;2024-01-15T02:23:35;4.77;;;1.73;;
14892;SDS011;7538;53.626;9.906;2024-01-15T02:26:02;5.73;;;1.90;;
14892;SDS011;7538;53.626;9.906;2024-01-15T02:28:30;8.83;;;2.17;;
14892;SDS011;7538;53.626;9.906;2024-01-15T02:30:58;9.63;;;2.17;;
14892;SDS011;7538;53.626;9.906;2024-01-15T02:33:25;8.53;;;2.53;;
14892;SDS011;7538;53.626;9.906;2024-01-15T02:35:52;11.20;;;3.30;;
14892;SDS011;7538;53.626;9.906;2024-01-15T02:38:19;9.00;;;2.53;;
14892;SDS011;7538;53.626;9.906;2024-01-15T02:40:47;14.87;;;2.73;;
14892;SDS011;7538;53.626;9.906;2024-01-15T02:43:14;8.20;;;2.20;;
14892;SDS011;7538;53.626;9.906;2024-01-15T02:45:40;7.77;;;2.33;;
14892;SDS011;7538;53.626;9.906;2024-01-15T02:48:07;7.63;;;2.53;;
14892;SDS011;7538;53.626;9.906;2024-01-15T02:50:34;8.37;;;2.50;;
14892;SDS011;7538;53.626;9.906;2024-01-15T02:53:01;13.53;;;2.70;;
14892;SDS011;7538;53.626;9.906;2024-01-15T02:55:28;9.17;;;2.80;;
14892;SDS011;7538;53.626;9.906;2024-01-15T02:57:56;7.77;;;2.70;;
14892;SDS011;7538;53.626;9.906;2024-01-15T03:00:23;6.50;;;2.43;;
14892;SDS011;7538;53.626;9.906;2024-01-15T03:02:50;9.50;;;2.30;;
14892;SDS011;7538;53.626;9.906;2024-01-15T03:05:17;13.93;;;2.60;;
14892;SDS011;7538;53.626;9.906;2024-01-15T03:07:45;8.07;;;2.20;;
14892;SDS011;7538;53.626;9.906;2024-01-15T03:10:12;9.60;;;2.13;;
14892;SDS011;7538;53.626;9.906;2024-01-15T03:12:38;8.83;;;2.40;;
14892;SDS011;7538;53.626;9.906;2024-01-15T03:15:07;6.67;;;2.27;;
14892;SDS011;7538;53.626;9.906;2024-01-15T03:17:34;10.93;;;2.43;;
14892;SDS011;7538;53.626;9.906;2024-01-15T03:20:01;7.67;;;2.67;;
14892;SDS011;7538;53.626;9.906;2024-01-15T03:22:28;14.60;;;2.80;;
14892;SDS011;7538;53.626;9.906;2024-01-15T03:24:55;8.87;;;2.30;;
14892;SDS011;7538;53.626;9.906;2024-01-15T03:27:22;16.43;;;2.50;;
14892;SDS011;7538;53.626;9.906;2024-01-15T03:29:49;8.37;;;2.23;;
14892;SDS011;7538;53.626;9.906;2024-01-15T03:32:17;11.73;;;2.30;;
14892;SDS011;7538;53.626;9.906;2024-01-15T03:34:44;13.50;;;2.60;;
14892;SDS011;7538;53.626;9.906;2024-01-15T03:37:12;12.70;;;3.43;;
14892;SDS011;7538;53.626;9.906;2024-01-15T03:39:39;14.77;;;2.60;;
14892;SDS011;7538;53.626;9.906;2024-01-15T03:42:06;20.20;;;2.73;;
14892;SDS011;7538;53.626;9.906;2024-01-15T03:44:33;15.90;;;2.70;;
14892;SDS011;7538;53.626;9.906;2024-01-15T03:47:00;12.03;;;3.10;;
14892;SDS011;7538;53.626;9.906;2024-01-15T03:49:29;15.20;;;3.57;;
14892;SDS011;7538;53.626;9.906;2024-01-15T03:51:55;14.80;;;2.70;;
14892;SDS011;7538;53.626;9.906;2024-01-15T03:54:22;14.43;;;3.73;;
14892;SDS011;7538;53.626;9.906;2024-01-15T03:56:49;17.43;;;3.23;;
14892;SDS011;7538;53.626;9.906;2024-01-15T03:59:16;16.20;;;3.10;;
14892;SDS011;7538;53.626;9.906;2024-01-15T04:01:47;14.07;;;2.70;;
14892;SDS011;7538;53.626;9.906;2024-01-15T04:04:15;11.60;;;2.77;;
14892;SDS011;7538;53.626;9.906;2024-01-15T04:06:44;13.27;;;3.27;;
14892;SDS011;7538;53.626;9.906;2024-01-15T04:09:11;12.80;;;2.77;;
14892;SDS011;7538;53.626;9.906;2024-01-15T04:15:02;14.53;;;2.67;;
14892;SDS011;7538;53.626;9.906;2024-01-15T04:17:34;11.57;;;2.70;;
14892;SDS011;7538;53.626;9.906;2024-01-15T04:20:07;10.80;;;2.57;;
14892;SDS011;7538;53.626;9.906;2024-01-15T04:22:38;13.43;;;2.47;;
14892;SDS011;7538;53.626;9.906;2024-01-15T04:25:12;10.07;;;2.40;;
14892;SDS011;7538;53.626;9.906;2024-01-15T04:28:11;18.93;;;3.07;;
14892;SDS011;7538;53.626;9.906;2024-01-15T04:30:48;12.80;;;3.20;;
14892;SDS011;7538;53.626;9.906;2024-01-15T04:33:15;15.60;;;3.03;;
14892;SDS011;7538;53.626;9.906;2024-01-15T04:35:42;17.43;;;2.93;;
14892;SDS011;7538;53.626;9.906;2024-01-15T04:38:10;19.60;;;3.00;;
14892;SDS011;7538;53.626;9.906;2024-01-15T04:40:37;14.70;;;3.00;;
14892;SDS011;7538;53.626;9.906;2024-01-15T04:43:04;14.23;;;2.90;;
14892;SDS011;7538;53.626;9.906;2024-01-15T04:45:30;21.00;;;3.13;;
14892;SDS011;7538;53.626;9.906;2024-01-15T04:47:57;20.83;;;3.87;;
14892;SDS011;7538;53.626;9.906;2024-01-15T04:50:24;18.23;;;3.67;;
14892;SDS011;7538;53.626;9.906;2024-01-15T04:52:51;17.03;;;3.80;;
14892;SDS011;7538;53.626;9.906;2024-01-15T04:55:19;27.80;;;4.40;;
14892;SDS011;7538;53.626;9.906;2024-01-15T04:57:46;16.27;;;4.27;;
14892;SDS011;7538;53.626;9.906;2024-01-15T05:00:22;21.40;;;3.53;;
14892;SDS011;7538;53.626;9.906;2024-01-15T05:03:28;20.27;;;4.13;;
14892;SDS011;7538;53.626;9.906;2024-01-15T05:06:02;21.43;;;5.93;;
14892;SDS011;7538;53.626;9.906;2024-01-15T05:08:40;18.67;;;4.30;;
14892;SDS011;7538;53.626;9.906;2024-01-15T05:11:14;29.90;;;4.90;;
14892;SDS011;7538;53.626;9.906;2024-01-15T05:13:41;20.27;;;3.73;;
14892;SDS011;7538;53.626;9.906;2024-01-15T05:16:11;24.23;;;3.93;;
14892;SDS011;7538;53.626;9.906;2024-01-15T05:18:44;15.40;;;4.10;;
14892;SDS011;7538;53.626;9.906;2024-01-15T05:21:11;20.73;;;4.23;;
14892;SDS011;7538;53.626;9.906;2024-01-15T05:23:38;24.90;;;3.50;;
14892;SDS011;7538;53.626;9.906;2024-01-15T05:26:05;22.53;;;3.77;;
14892;SDS011;7538;53.626;9.906;2024-01-15T05:35:34;25.40;;;3.83;;
14892;SDS011;7538;53.626;9.906;2024-01-15T05:38:01;16.27;;;3.40;;
14892;SDS011;7538;53.626;9.906;2024-01-15T05:40:28;16.27;;;3.57;;
14892;SDS011;7538;53.626;9.906;2024-01-15T05:42:55;19.23;;;3.87;;
14892;SDS011;7538;53.626;9.906;2024-01-15T05:45:22;18.37;;;3.37;;
14892;SDS011;7538;53.626;9.906;2024-01-15T05:47:49;17.03;;;3.87;;
14892;SDS011;7538;53.626;9.906;2024-01-15T05:50:16;14.90;;;3.30;;
14892;SDS011;7538;53.626;9.906;2024-01-15T05:52:44;17.10;;;3.93;;
14892;SDS011;7538;53.626;9.906;2024-01-15T05:55:12;22.57;;;4.43;;
14892;SDS011;7538;53.626;9.906;2024-01-15T05:57:38;11.97;;;3.60;;
14892;SDS011;7538;53.626;9.906;2024-01-15T06:00:06;15.17;;;3.53;;
14892;SDS011;7538;53.626;9.906;2024-01-15T06:02:35;23.33;;;3.93;;
14892;SDS011;7538;53.626;9.906;2024-01-15T06:05:04;24.43;;;4.23;;
14892;SDS011;7538;53.626;9.906;2024-01-15T06:07:31;25.10;;;4.00;;
14892;SDS011;7538;53.626;9.906;2024-01-15T06:09:59;15.90;;;4.47;;
14892;SDS011;7538;53.626;9.906;2024-01-15T06:12:26;15.20;;;3.30;;
14892;SDS011;7538;53.626;9.906;2024-01-15T06:14:53;17.03;;;4.20;;
14892;SDS011;7538;53.626;9.906;2024-01-15T06:17:20;14.77;;;3.47;;
14892;SDS011;7538;53.626;9.906;2024-01-15T06:19:47;22.23;;;3.23;;
14892;SDS011;7538;53.626;9.906;2024-01-15T06:22:14;16.37;;;4.13;;
14892;SDS011;7538;53.626;9.906;2024-01-15T06:24:41;20.67;;;4.47;;
14892;SDS011;7538;53.626;9.906;2024-01-15T06:27:09;17.20;;;2.97;;
14892;SDS011;7538;53.626;9.906;2024-01-15T06:29:37;21.60;;;3.87;;
14892;SDS011;7538;53.626;9.906;2024-01-15T06:32:04;11.73;;;2.30;;
14892;SDS011;7538;53.626;9.906;2024-01-15T06:34:31;15.87;;;3.40;;
14892;SDS011;7538;53.626;9.906;2024-01-15T06:36:58;13.17;;;2.37;;
14892;SDS011;7538;53.626;9.906;2024-01-15T06:39:25;12.87;;;2.43;;
14892;SDS011;7538;53.626;9.906;2024-01-15T06:41:52;12.20;;;2.47;;
14892;SDS011;7538;53.626;9.906;2024-01-15T06:44:20;9.40;;;2.47;;
14892;SDS011;7538;53.626;9.906;2024-01-15T06:46:47;12.27;;;2.93;;
14892;SDS011;7538;53.626;9.906;2024-01-15T06:49:14;5.17;;;2.13;;
14892;SDS011;7538;53.626;9.906;2024-01-15T06:51:41;9.77;;;2.50;;
14892;SDS011;7538;53.626;9.906;2024-01-15T06:54:08;12.23;;;2.47;;
14892;SDS011;7538;53.626;9.906;2024-01-15T06:56:35;11.23;;;2.80;;
14892;SDS011;7538;53.626;9.906;2024-01-15T06:59:02;10.50;;;2.20;;
14892;SDS011;7538;53.626;9.906;2024-01-15T07:01:32;11.67;;;2.80;;
14892;SDS011;7538;53.626;9.906;2024-01-15T07:03:59;17.17;;;3.10;;
14892;SDS011;7538;53.626;9.906;2024-01-15T07:06:26;8.90;;;1.97;;
14892;SDS011;7538;53.626;9.906;2024-01-15T07:08:53;8.90;;;2.57;;
14892;SDS011;7538;53.626;9.906;2024-01-15T07:11:20;8.53;;;2.17;;
14892;SDS011;7538;53.626;9.906;2024-01-15T07:13:46;8.23;;;2.37;;
14892;SDS011;7538;53.626;9.906;2024-01-15T07:16:13;10.57;;;2.60;;
14892;SDS011;7538;53.626;9.906;2024-01-15T07:18:42;9.37;;;1.90;;
14892;SDS011;7538;53.626;9.906;2024-01-15T07:21:10;10.07;;;2.03;;
14892;SDS011;7538;53.626;9.906;2024-01-15T07:23:37;16.03;;;3.27;;
14892;SDS011;7538;53.626;9.906;2024-01-15T07:26:03;10.70;;;2.20;;
14892;SDS011;7538;53.626;9.906;2024-01-15T07:28:31;9.93;;;2.13;;
14892;SDS011;7538;53.626;9.906;2024-01-15T07:30:58;9.30;;;1.93;;
14892;SDS011;7538;53.626;9.906;2024-01-15T07:33:26;7.33;;;2.00;;
14892;SDS011;7538;53.626;9.906;2024-01-15T07:35:54;7.10;;;2.00;;
14892;SDS011;7538;53.626;9.906;2024-01-15T07:38:21;11.63;;;2.03;;
14892;SDS011;7538;53.626;9.906;2024-01-15T07:40:48;5.40;;;1.60;;
14892;SDS011;7538;53.626;9.906;2024-01-15T07:43:15;9.77;;;2.17;;
14892;SDS011;7538;53.626;9.906;2024-01-15T07:45:42;5.30;;;1.80;;
14892;SDS011;7538;53.626;9.906;2024-01-15T07:48:10;9.33;;;1.63;;
14892;SDS011;7538;53.626;9.906;2024-01-15T07:50:37;6.57;;;1.87;;
14892;SDS011;7538;53.626;9.906;2024-01-15T07:53:05;7.57;;;1.97;;
14892;SDS011;7538;53.626;9.906;2024-01-15T07:55:32;9.70;;;1.73;;
14892;SDS011;7538;53.626;9.906;2024-01-15T07:57:59;4.47;;;1.43;;
14892;SDS011;7538;53.626;9.906;2024-01-15T08:00:27;7.47;;;1.37;;
14892;SDS011;7538;53.626;9.906;2024-01-15T08:02:53;5.37;;;1.73;;
14892;SDS011;7538;53.626;9.906;2024-01-15T08:05:20;4.13;;;1.60;;
14892;SDS011;7538;53.626;9.906;2024-01-15T08:07:47;6.60;;;1.43;;
14892;SDS011;7538;53.626;9.906;2024-01-15T08:10:16;5.73;;;1.83;;
14892;SDS011;7538;53.626;9.906;2024-01-15T08:12:48;5.90;;;1.57;;
14892;SDS011;7538;53.626;9.906;2024-01-15T08:15:15;5.27;;;1.63;;
14892;SDS011;7538;53.626;9.906;2024-01-15T08:17:43;5.83;;;1.40;;
14892;SDS011;7538;53.626;9.906;2024-01-15T08:20:10;6.90;;;1.50;;
14892;SDS011;7538;53.626;9.906;2024-01-15T08:22:38;6.47;;;1.50;;
14892;SDS011;7538;53.626;9.906;2024-01-15T08:25:05;5.20;;;2.00;;
14892;SDS011;7538;53.626;9.906;2024-01-15T08:27:33;7.50;;;2.27;;
14892;SDS011;7538;53.626;9.906;2024-01-15T08:30:00;9.33;;;2.10;;
14892;SDS011;7538;53.626;9.906;2024-01-15T08:32:29;6.90;;;1.87;;
14892;SDS011;7538;53.626;9.906;2024-01-15T08:34:56;8.07;;;1.90;;
14892;SDS011;7538;53.626;9.906;2024-01-15T08:37:23;7.37;;;2.30;;
14892;SDS011;7538;53.626;9.906;2024-01-15T08:39:49;5.40;;;2.07;;
14892;SDS011;7538;53.626;9.906;2024-01-15T08:42:16;6.10;;;1.67;;
14892;SDS011;7538;53.626;9.906;2024-01-15T08:44:45;7.67;;;1.80;;
14892;SDS011;7538;53.626;9.906;2024-01-15T08:47:12;6.60;;;1.50;;
14892;SDS011;7538;53.626;9.906;2024-01-15T08:49:38;6.53;;;1.80;;
14892;SDS011;7538;53.626;9.906;2024-01-15T08:52:05;5.97;;;1.90;;
14892;SDS011;7538;53.626;9.906;2024-01-15T08:54:32;6.17;;;1.93;;
14892;SDS011;7538;53.626;9.906;2024-01-15T08:56:59;6.57;;;2.07;;
14892;SDS011;7538;53.626;9.906;2024-01-15T08:59:26;6.17;;;1.57;;
14892;SDS011;7538;53.626;9.906;2024-01-15T09:01:55;6.37;;;1.60;;
14892;SDS011;7538;53.626;9.906;2024-01-15T09:04:22;4.67;;;1.47;;
14892;SDS011;7538;53.626;9.906;2024-01-15T09:06:49;5.03;;;1.77;;
14892;SDS011;7538;53.626;9.906;2024-01-15T09:09:16;6.13;;;1.63;;
14892;SDS011;7538;53.626;9.906;2024-01-15T09:11:44;4.87;;;1.40;;
14892;SDS011;7538;53.626;9.906;2024-01-15T09:14:12;7.13;;;1.50;;
14892;SDS011;7538;53.626;9.906;2024-01-15T09:16:39;4.53;;;1.37;;
14892;SDS011;7538;53.626;9.906;2024-01-15T09:19:07;6.33;;;2.00;;
14892;SDS011;7538;53.626;9.906;2024-01-15T09:21:34;7.37;;;1.50;;
14892;SDS011;7538;53.626;9.906;2024-01-15T09:24:01;8.97;;;1.97;;
14892;SDS011;7538;53.626;9.906;2024-01-15T09:26:28;6.00;;;1.40;;
14892;SDS011;7538;53.626;9.906;2024-01-15T09:28:55;6.80;;;1.53;;
14892;SDS011;7538;53.626;9.906;2024-01-15T09:31:23;6.17;;;1.40;;
14892;SDS011;7538;53.626;9.906;2024-01-15T09:33:50;4.43;;;1.40;;
14892;SDS011;7538;53.626;9.906;2024-01-15T09:36:22;6.57;;;1.80;;
14892;SDS011;7538;53.626;9.906;2024-01-15T09:38:49;4.90;;;1.60;;
14892;SDS011;7538;53.626;9.906;2024-01-15T09:41:16;7.77;;;2.03;;
14892;SDS011;7538;53.626;9.906;2024-01-15T09:43:43;7.27;;;2.50;;
14892;SDS011;7538;53.626;9.906;2024-01-15T09:46:11;12.33;;;4.13;;
14892;SDS011;7538;53.626;9.906;2024-01-15T09:48:38;8.37;;;3.20;;
14892;SDS011;7538;53.626;9.906;2024-01-15T09:51:05;10.73;;;2.77;;
14892;SDS011;7538;53.626;9.906;2024-01-15T09:53:34;9.50;;;2.00;;
14892;SDS011;7538;53.626;9.906;2024-01-15T09:56:03;7.37;;;2.00;;
14892;SDS011;7538;53.626;9.906;2024-01-15T09:58:31;8.20;;;2.00;;
14892;SDS011;7538;53.626;9.906;2024-01-15T10:00:59;7.10;;;2.13;;
14892;SDS011;7538;53.626;9.906;2024-01-15T10:03:28;9.30;;;2.30;;
14892;SDS011;7538;53.626;9.906;2024-01-15T10:05:55;6.23;;;1.83;;
14892;SDS011;7538;53.626;9.906;2024-01-15T10:08:24;9.10;;;1.93;;
14892;SDS011;7538;53.626;9.906;2024-01-15T10:10:53;8.30;;;2.10;;
14892;SDS011;7538;53.626;9.906;2024-01-15T10:13:20;7.13;;;1.93;;
14892;SDS011;7538;53.626;9.906;2024-01-15T10:15:48;10.07;;;2.13;;
14892;SDS011;7538;53.626;9.906;2024-01-15T10:18:15;3.80;;;1.53;;
14892;SDS011;7538;53.626;9.906;2024-01-15T10:20:42;7.50;;;1.73;;
14892;SDS011;7538;53.626;9.906;2024-01-15T10:23:09;4.50;;;1.50;;
14892;SDS011;7538;53.626;9.906;2024-01-15T10:25:36;7.43;;;1.70;;
14892;SDS011;7538;53.626;9.906;2024-01-15T10:28:04;5.17;;;2.70;;
14892;SDS011;7538;53.626;9.906;2024-01-15T10:30:32;7.87;;;3.77;;
14892;SDS011;7538;53.626;9.906;2024-01-15T10:32:59;12.67;;;4.13;;
14892;SDS011;7538;53.626;9.906;2024-01-15T10:35:28;10.20;;;5.53;;
14892;SDS011;7538;53.626;9.906;2024-01-15T10:37:55;6.73;;;3.90;;
14892;SDS011;7538;53.626;9.906;2024-01-15T10:40:22;7.60;;;3.43;;
14892;SDS011;7538;53.626;9.906;2024-01-15T10:42:51;6.87;;;3.23;;
14892;SDS011;7538;53.626;9.906;2024-01-15T10:45:20;7.43;;;3.13;;
14892;SDS011;7538;53.626;9.906;2024-01-15T10:47:47;5.00;;;1.93;;
14892;SDS011;7538;53.626;9.906;2024-01-15T10:50:14;2.53;;;1.77;;
14892;SDS011;7538;53.626;9.906;2024-01-15T10:52:41;5.20;;;1.40;;
14892;SDS011;7538;53.626;9.906;2024-01-15T10:55:09;4.43;;;1.40;;
14892;SDS011;7538;53.626;9.906;2024-01-15T10:57:37;3.63;;;1.20;;
14892;SDS011;7538;53.626;9.906;2024-01-15T11:00:04;2.53;;;1.13;;
14892;SDS011;7538;53.626;9.906;2024-01-15T11:02:35;2.73;;;1.10;;
14892;SDS011;7538;53.626;9.906;2024-01-15T11:05:03;2.37;;;1.27;;
14892;SDS011;7538;53.626;9.906;2024-01-15T11:07:30;3.80;;;1.13;;
14892;SDS011;7538;53.626;9.906;2024-01-15T11:09:57;3.97;;;1.20;;
14892;SDS011;7538;53.626;9.906;2024-01-15T11:12:24;3.17;;;1.27;;
14892;SDS011;7538;53.626;9.906;2024-01-15T11:14:58;3.87;;;1.40;;
14892;SDS011;7538;53.626;9.906;2024-01-15T11:17:57;3.33;;;1.53;;
14892;SDS011;7538;53.626;9.906;2024-01-15T11:20:25;4.63;;;1.60;;
14892;SDS011;7538;53.626;9.906;2024-01-15T11:22:52;2.77;;;1.40;;
14892;SDS011;7538;53.626;9.906;2024-01-15T11:25:22;6.87;;;1.97;;
14892;SDS011;7538;53.626;9.906;2024-01-15T11:27:49;5.03;;;1.80;;
14892;SDS011;7538;53.626;9.906;2024-01-15T11:30:18;2.80;;;1.20;;
14892;SDS011;7538;53.626;9.906;2024-01-15T11:32:48;3.03;;;1.43;;
14892;SDS011;7538;53.626;9.906;2024-01-15T11:35:15;3.47;;;1.40;;
14892;SDS011;7538;53.626;9.906;2024-01-15T11:40:39;5.13;;;1.40;;
14892;SDS011;7538;53.626;9.906;2024-01-15T11:43:07;4.20;;;1.27;;
14892;SDS011;7538;53.626;9.906;2024-01-15T11:45:35;3.23;;;0.90;;
14892;SDS011;7538;53.626;9.906;2024-01-15T11:48:12;3.67;;;1.37;;
14892;SDS011;7538;53.626;9.906;2024-01-15T11:50:42;3.60;;;1.00;;
14892;SDS011;7538;53.626;9.906;2024-01-15T11:53:16;3.30;;;1.27;;
14892;SDS011;7538;53.626;9.906;2024-01-15T11:55:44;4.33;;;1.60;;
14892;SDS011;7538;53.626;9.906;2024-01-15T11:58:13;5.97;;;1.57;;
14892;SDS011;7538;53.626;9.906;2024-01-15T12:00:42;3.43;;;1.20;;
14892;SDS011;7538;53.626;9.906;2024-01-15T12:03:12;6.40;;;1.63;;
14892;SDS011;7538;53.626;9.906;2024-01-15T12:05:39;5.10;;;2.00;;
14892;SDS011;7538;53.626;9.906;2024-01-15T12:08:07;5.33;;;1.53;;
14892;SDS011;7538;53.626;9.906;2024-01-15T12:10:36;3.67;;;1.37;;
14892;SDS011;7538;53.626;9.906;2024-01-15T12:13:04;4.67;;;1.37;;
14892;SDS011;7538;53.626;9.906;2024-01-15T12:15:32;3.87;;;1.30;;
14892;SDS011;7538;53.626;9.906;2024-01-15T12:18:00;3.43;;;1.40;;
14892;SDS011;7538;53.626;9.906;2024-01-15T12:20:30;3.43;;;1.43;;
14892;SDS011;7538;53.626;9.906;2024-01-15T12:22:58;3.77;;;1.80;;
14892;SDS011;7538;53.626;9.906;2024-01-15T12:25:26;4.60;;;1.67;;
14892;SDS011;7538;53.626;9.906;2024-01-15T12:27:53;2.97;;;1.50;;
14892;SDS011;7538;53.626;9.906;2024-01-15T12:30:21;2.23;;;1.40;;
14892;SDS011;7538;53.626;9.906;2024-01-15T12:32:48;1.97;;;1.20;;
14892;SDS011;7538;53.626;9.906;2024-01-15T12:35:15;1.67;;;1.20;;
14892;SDS011;7538;53.626;9.906;2024-01-15T12:37:43;3.47;;;1.20;;
14892;SDS011;7538;53.626;9.906;2024-01-15T12:40:11;2.70;;;1.60;;
14892;SDS011;7538;53.626;9.906;2024-01-15T12:42:39;3.30;;;1.40;;
14892;SDS011;7538;53.626;9.906;2024-01-15T12:45:07;2.60;;;1.37;;
14892;SDS011;7538;53.626;9.906;2024-01-15T12:47:35;2.47;;;1.40;;
14892;SDS011;7538;53.626;9.906;2024-01-15T12:50:05;2.83;;;1.07;;
14892;SDS011;7538;53.626;9.906;2024-01-15T12:52:32;1.80;;;1.13;;
14892;SDS011;7538;53.626;9.906;2024-01-15T12:55:01;1.17;;;1.00;;
14892;SDS011;7538;53.626;9.906;2024-01-15T12:57:29;2.13;;;1.07;;
14892;SDS011;7538;53.626;9.906;2024-01-15T12:59:56;3.57;;;1.37;;
14892;SDS011;7538;53.626;9.906;2024-01-15T13:02:23;1.47;;;0.97;;
14892;SDS011;7538;53.626;9.906;2024-01-15T13:04:50;2.40;;;1.50;;
14892;SDS011;7538;53.626;9.906;2024-01-15T13:07:17;2.13;;;1.30;;
14892;SDS011;7538;53.626;9.906;2024-01-15T13:09:44;1.37;;;0.90;;
14892;SDS011;7538;53.626;9.906;2024-01-15T13:12:12;2.00;;;1.20;;
14892;SDS011;7538;53.626;9.906;2024-01-15T13:14:39;2.47;;;1.00;;
14892;SDS011;7538;53.626;9.906;2024-01-15T13:17:07;2.13;;;1.00;;
14892;SDS011;7538;53.626;9.906;2024-01-15T13:19:34;2.37;;;1.20;;
14892;SDS011;7538;53.626;9.906;2024-01-15T13:22:00;1.53;;;1.20;;
14892;SDS011;7538;53.626;9.906;2024-01-15T13:24:28;2.20;;;1.30;;
14892;SDS011;7538;53.626;9.906;2024-01-15T13:26:56;2.83;;;1.30;;
14892;SDS011;7538;53.626;9.906;2024-01-15T13:29:24;4.00;;;1.30;;
14892;SDS011;7538;53.626;9.906;2024-01-15T13:31:51;2.17;;;1.50;;
14892;SDS011;7538;53.626;9.906;2024-01-15T13:34:18;2.60;;;1.27;;
14892;SDS011;7538;53.626;9.906;2024-01-15T13:36:45;2.33;;;1.10;;
14892;SDS011;7538;53.626;9.906;2024-01-15T13:39:12;2.67;;;1.00;;
14892;SDS011;7538;53.626;9.906;2024-01-15T13:41:40;2.30;;;1.17;;
14892;SDS011;7538;53.626;9.906;2024-01-15T13:44:09;2.87;;;1.20;;
14892;SDS011;7538;53.626;9.906;2024-01-15T13:46:37;2.97;;;1.43;;
14892;SDS011;7538;53.626;9.906;2024-01-15T13:49:04;4.70;;;1.73;;
14892;SDS011;7538;53.626;9.906;2024-01-15T13:51:32;2.70;;;1.50;;
14892;SDS011;7538;53.626;9.906;2024-01-15T13:54:01;3.57;;;1.40;;
14892;SDS011;7538;53.626;9.906;2024-01-15T13:56:29;3.50;;;1.80;;
14892;SDS011;7538;53.626;9.906;2024-01-15T13:58:57;2.60;;;1.40;;
14892;SDS011;7538;53.626;9.906;2024-01-15T14:01:24;1.73;;;1.27;;
14892;SDS011;7538;53.626;9.906;2024-01-15T14:03:53;2.13;;;1.60;;
14892;SDS011;7538;53.626;9.906;2024-01-15T14:06:20;2.90;;;1.73;;
14892;SDS011;7538;53.626;9.906;2024-01-15T14:08:47;1.37;;;1.10;;
14892;SDS011;7538;53.626;9.906;2024-01-15T14:11:15;2.57;;;1.40;;
14892;SDS011;7538;53.626;9.906;2024-01-15T14:13:42;1.63;;;1.13;;
14892;SDS011;7538;53.626;9.906;2024-01-15T14:16:09;1.97;;;1.70;;
14892;SDS011;7538;53.626;9.906;2024-01-15T14:18:37;1.77;;;1.40;;
14892;SDS011;7538;53.626;9.906;2024-01-15T14:21:05;3.10;;;1.27;;
14892;SDS011;7538;53.626;9.906;2024-01-15T14:23:32;1.47;;;1.20;;
14892;SDS011;7538;53.626;9.906;2024-01-15T14:25:59;2.80;;;1.10;;
14892;SDS011;7538;53.626;9.906;2024-01-15T14:28:26;1.73;;;0.97;;
14892;SDS011;7538;53.626;9.906;2024-01-15T14:30:54;1.27;;;1.10;;
14892;SDS011;7538;53.626;9.906;2024-01-15T14:33:23;2.23;;;1.20;;
14892;SDS011;7538;53.626;9.906;2024-01-15T14:35:50;2.17;;;1.30;;
14892;SDS011;7538;53.626;9.906;2024-01-15T14:38:18;1.40;;;1.30;;
14892;SDS011;7538;53.626;9.906;2024-01-15T14:40:45;1.97;;;1.23;;
14892;SDS011;7538;53.626;9.906;2024-01-15T14:43:12;2.47;;;1.30;;
14892;SDS011;7538;53.626;9.906;2024-01-15T14:45:39;1.97;;;1.13;;
14892;SDS011;7538;53.626;9.906;2024-01-15T14:48:06;1.40;;;1.20;;
14892;SDS011;7538;53.626;9.906;2024-01-15T14:50:33;2.77;;;1.30;;
14892;SDS011;7538;53.626;9.906;2024-01-15T14:53:00;2.03;;;1.10;;
14892;SDS011;7538;53.626;9.906;2024-01-15T14:55:28;2.13;;;1.33;;
14892;SDS011;7538;53.626;9.906;2024-01-15T14:57:55;1.47;;;1.10;;
14892;SDS011;7538;53.626;9.906;2024-01-15T15:00:22;1.90;;;1.27;;
14892;SDS011;7538;53.626;9.906;2024-01-15T15:02:49;1.33;;;1.17;;
14892;SDS011;7538;53.626;9.906;2024-01-15T15:05:16;2.30;;;1.40;;
14892;SDS011;7538;53.626;9.906;2024-01-15T15:07:43;2.07;;;1.50;;
14892;SDS011;7538;53.626;9.906;2024-01-15T15:10:10;3.90;;;1.80;;
14892;SDS011;7538;53.626;9.906;2024-01-15T15:12:38;3.03;;;1.63;;
14892;SDS011;7538;53.626;9.906;2024-01-15T15:15:05;2.60;;;2.00;;
14892;SDS011;7538;53.626;9.906;2024-01-15T15:17:36;2.90;;;2.40;;
14892;SDS011;7538;53.626;9.906;2024-01-15T15:20:03;2.77;;;2.10;;
14892;SDS011;7538;53.626;9.906;2024-01-15T15:22:30;3.10;;;2.33;;
14892;SDS011;7538;53.626;9.906;2024-01-15T15:24:57;5.57;;;2.93;;
14892;SDS011;7538;53.626;9.906;2024-01-15T15:27:24;3.07;;;2.67;;
14892;SDS011;7538;53.626;9.906;2024-01-15T15:29:53;4.57;;;3.57;;
14892;SDS011;7538;53.626;9.906;2024-01-15T15:32:20;4.10;;;2.67;;
14892;SDS011;7538;53.626;9.906;2024-01-15T15:34:47;3.37;;;3.07;;
14892;SDS011;7538;53.626;9.906;2024-01-15T15:37:14;3.90;;;3.23;;
14892;SDS011;7538;53.626;9.906;2024-01-15T15:39:41;4.03;;;3.40;;
14892;SDS011;7538;53.626;9.906;2024-01-15T15:42:10;5.20;;;3.33;;
14892;SDS011;7538;53.626;9.906;2024-01-15T15:44:38;4.23;;;3.50;;
14892;SDS011;7538;53.626;9.906;2024-01-15T15:47:12;4.87;;;3.40;;
14892;SDS011;7538;53.626;9.906;2024-01-15T15:49:40;3.77;;;3.30;;